Time;durP1;ratioP1;P1;durP2;ratioP2;P2;SDS_P1;SDS_P2;PMS_P1;PMS_P2;Temp;Humidity;BMP_temperature;BMP_pressure;BME280_temperature;BME280_humidity;BME280_pressure;Samples;Min_cycle;Max_cycle;Signal;HPM_P1;HPM_P2
2023/09/07 00:03:34;;;;;;;15.70;11.00;;;;;;;12.45;77.49;100788.33;217848;1256;140331;-68
2023/09/07 00:08:38;;;;;;;12.70;9.20;;;;;;;12.45;77.84;100790.66;218146;1260;140444;-69
2023/09/07 00:13:42;;;;;;;15.80;11.50;;;;;;;12.36;77.62;100790.70;217628;1258;142620;-71
2023/09/07 00:18:46;;;;;;;16.00;9.90;;;;;;;12.31;78.42;100791.94;219289;1257;141117;-71
2023/09/07 00:23:49;;;;;;;12.00;9.10;;;;;;;12.33;78.30;100789.17;217880;1260;142498;-71
2023/09/07 00:28:53;;;;;;;10.50;9.40;;;;;;;12.31;77.90;100793.23;220385;1257;141013;-72
2023/09/07 00:33:58;;;;;;;32.20;12.30;;;;;;;12.22;77.96;100792.73;220343;1257;140389;-71
2023/09/07 00:39:02;;;;;;;19.10;13.20;;;;;;;12.17;78.24;100791.68;218635;1257;140581;-70
2023/09/07 00:44:06;;;;;;;14.50;10.60;;;;;;;12.14;78.22;100791.17;219932;1257;140538;-70
2023/09/07 00:49:14;;;;;;;16.50;11.10;;;;;;;12.16;78.37;100787.33;219746;1257;141444;-74
2023/09/07 00:54:19;;;;;;;18.60;11.40;;;;;;;12.17;78.13;100789.00;217886;1260;140989;-73
2023/09/07 00:59:23;;;;;;;13.70;9.40;;;;;;;12.10;78.08;100785.73;218008;1257;141324;-71
2023/09/07 01:04:27;;;;;;;14.40;9.40;;;;;;;12.00;78.47;100783.99;218301;1260;140990;-72
2023/09/07 01:09:32;;;;;;;14.70;12.80;;;;;;;11.97;78.61;100779.30;217700;1257;141405;-71
2023/09/07 01:14:36;;;;;;;25.80;10.40;;;;;;;11.92;78.54;100775.35;218306;1257;142271;-72
2023/09/07 01:19:39;;;;;;;17.50;10.40;;;;;;;11.82;78.48;100776.59;217998;1256;141092;-73
2023/09/07 01:24:45;;;;;;;23.30;12.70;;;;;;;11.77;78.91;100782.95;218326;1257;140896;-69
2023/09/07 01:29:47;;;;;;;20.90;13.10;;;;;;;11.79;79.49;100784.05;217866;1260;235709;-70
2023/09/07 01:34:52;;;;;;;16.60;10.70;;;;;;;11.79;79.29;100784.66;217774;1257;140987;-74
2023/09/07 01:39:56;;;;;;;14.80;11.40;;;;;;;11.70;79.25;100789.16;217286;1260;141072;-72
2023/09/07 01:45:00;;;;;;;15.10;10.50;;;;;;;11.62;79.41;100788.86;217666;1258;141957;-75
2023/09/07 01:50:04;;;;;;;16.20;12.80;;;;;;;11.53;79.76;100796.65;217694;1256;142238;-73
2023/09/07 01:55:08;;;;;;;18.70;10.70;;;;;;;11.53;80.03;100798.58;217513;1257;140673;-74
2023/09/07 02:00:13;;;;;;;18.00;12.60;;;;;;;11.53;80.07;100799.41;217659;1258;141012;-76
2023/09/07 02:05:17;;;;;;;16.30;12.30;;;;;;;11.50;80.09;100795.43;218136;1260;141433;-75
2023/09/07 02:10:20;;;;;;;20.20;12.50;;;;;;;11.47;79.91;100797.13;217451;1260;141342;-75
2023/09/07 02:15:25;;;;;;;18.20;12.80;;;;;;;11.41;79.91;100795.11;217686;1256;140383;-68
2023/09/07 02:20:28;;;;;;;15.70;12.00;;;;;;;11.39;80.11;100792.73;218145;1257;140995;-69
2023/09/07 02:25:34;;;;;;;16.60;11.20;;;;;;;11.35;80.12;100794.15;220454;1256;140632;-74
2023/09/07 02:30:38;;;;;;;16.40;12.40;;;;;;;11.30;79.93;100792.05;220388;1256;141109;-75
2023/09/07 02:35:43;;;;;;;13.00;10.00;;;;;;;11.30;80.00;100792.59;220531;1256;141578;-74
2023/09/07 02:40:48;;;;;;;18.30;12.40;;;;;;;11.29;80.20;100791.50;218471;1256;140922;-73
2023/09/07 02:45:52;;;;;;;14.50;11.00;;;;;;;11.33;80.16;100798.71;217539;1256;143094;-71
2023/09/07 02:50:58;;;;;;;11.60;10.30;;;;;;;11.31;80.17;100801.36;218873;1256;140461;-71
2023/09/07 02:56:04;;;;;;;18.50;9.70;;;;;;;11.26;80.08;100802.11;217963;1256;140947;-71
2023/09/07 03:01:08;;;;;;;10.90;9.60;;;;;;;11.23;80.22;100803.91;218518;1256;140601;-70
2023/09/07 03:06:16;;;;;;;11.30;8.60;;;;;;;11.16;80.00;100799.97;218167;1257;140496;-72
2023/09/07 03:11:20;;;;;;;14.30;10.20;;;;;;;11.10;80.05;100801.22;217739;1257;142329;-69
2023/09/07 03:16:23;;;;;;;14.20;8.40;;;;;;;11.02;79.91;100799.08;218582;1256;142738;-71
2023/09/07 03:21:29;;;;;;;10.70;9.50;;;;;;;10.97;80.32;100798.66;218364;1256;141564;-68
2023/09/07 03:26:33;;;;;;;11.00;9.30;;;;;;;10.98;80.55;100798.13;218220;1257;140923;-69
2023/09/07 03:31:36;;;;;;;12.30;10.90;;;;;;;10.96;80.52;100802.98;217789;1256;141537;-70
2023/09/07 03:36:41;;;;;;;12.90;9.20;;;;;;;10.92;80.54;100805.25;217556;1256;141719;-70
2023/09/07 03:41:45;;;;;;;17.10;12.40;;;;;;;10.84;80.38;100810.48;218012;1256;140427;-70
2023/09/07 03:46:47;;;;;;;16.80;12.30;;;;;;;10.81;80.78;100811.67;217771;1256;140134;-71
2023/09/07 03:51:51;;;;;;;14.50;11.70;;;;;;;10.77;80.73;100806.52;219309;1256;141256;-71
2023/09/07 03:56:56;;;;;;;12.70;10.50;;;;;;;10.73;80.73;100808.48;217564;1256;140987;-68
2023/09/07 04:01:59;;;;;;;18.10;10.50;;;;;;;10.72;80.94;100810.95;218547;1256;141825;-68
2023/09/07 04:07:04;;;;;;;15.50;10.80;;;;;;;10.68;80.84;100806.17;218761;1256;140727;-68
2023/09/07 04:12:07;;;;;;;18.20;10.70;;;;;;;10.62;81.03;100810.88;218589;1257;140832;-69
2023/09/07 04:17:10;;;;;;;16.50;10.60;;;;;;;10.62;81.19;100813.38;220243;1256;141463;-68
2023/09/07 04:22:14;;;;;;;18.70;11.80;;;;;;;10.66;81.27;100813.00;220255;1256;141064;-71
2023/09/07 04:27:16;;;;;;;15.50;11.60;;;;;;;10.70;81.07;100811.20;220189;1256;141365;-70
2023/09/07 04:32:20;;;;;;;21.70;11.80;;;;;;;10.75;81.20;100815.46;220341;1256;140563;-70
2023/09/07 04:37:24;;;;;;;17.70;11.50;;;;;;;10.80;81.56;100818.45;218352;1256;142157;-68
2023/09/07 04:42:27;;;;;;;14.00;11.00;;;;;;;10.88;81.67;100817.23;219413;1256;141517;-69
2023/09/07 04:47:32;;;;;;;17.70;12.40;;;;;;;10.97;81.75;100823.13;219605;1256;140834;-68
2023/09/07 04:52:37;;;;;;;24.50;13.20;;;;;;;11.10;81.99;100825.77;219431;1256;143337;-67
2023/09/07 04:57:40;;;;;;;17.40;13.40;;;;;;;11.25;82.09;100830.11;218940;1256;141203;-68
2023/09/07 05:02:45;;;;;;;41.70;14.60;;;;;;;11.38;82.35;100829.95;218499;1260;141409;-67
2023/09/07 05:07:49;;;;;;;17.20;13.60;;;;;;;11.49;82.35;100837.09;217780;1256;142202;-69
2023/09/07 05:12:53;;;;;;;19.60;13.00;;;;;;;11.61;82.28;100836.23;217616;1257;141540;-69
2023/09/07 05:17:57;;;;;;;24.60;13.80;;;;;;;11.71;82.31;100842.70;218288;1256;142532;-71
2023/09/07 05:23:00;;;;;;;18.40;14.00;;;;;;;11.84;82.94;100843.61;218312;1257;140362;-71
2023/09/07 05:28:06;;;;;;;19.00;14.20;;;;;;;12.00;83.35;100847.19;217715;1257;140702;-68
2023/09/07 05:33:16;;;;;;;25.90;15.90;;;;;;;12.18;83.61;100845.38;217926;1257;140734;-71
2023/09/07 05:38:20;;;;;;;29.90;15.90;;;;;;;12.36;83.84;100849.61;217455;1256;142051;-70
2023/09/07 05:43:24;;;;;;;23.10;15.70;;;;;;;12.57;84.00;100850.29;218551;1256;141694;-68
2023/09/07 05:48:28;;;;;;;26.40;17.50;;;;;;;12.75;84.05;100852.45;217732;1259;141844;-66
2023/09/07 05:53:32;;;;;;;18.30;15.40;;;;;;;12.97;84.34;100859.05;218769;1256;140601;-66
2023/09/07 05:58:35;;;;;;;21.50;16.80;;;;;;;13.18;84.65;100857.55;218429;1256;140945;-69
2023/09/07 06:03:43;;;;;;;23.00;15.40;;;;;;;13.41;84.96;100859.80;217943;1257;140497;-69
2023/09/07 06:08:47;;;;;;;19.30;14.30;;;;;;;13.66;85.31;100866.34;218463;1256;142111;-69
2023/09/07 06:13:51;;;;;;;22.00;15.10;;;;;;;13.91;85.56;100866.88;217771;1260;140245;-69
2023/09/07 06:18:54;;;;;;;20.70;14.90;;;;;;;14.16;85.84;100872.60;219639;1256;141228;-70
2023/09/07 06:23:58;;;;;;;19.40;15.80;;;;;;;14.42;85.93;100870.73;220344;1256;141759;-69
2023/09/07 06:29:01;;;;;;;26.90;16.20;;;;;;;14.71;86.11;100873.02;220500;1256;140592;-69
2023/09/07 06:34:04;;;;;;;22.30;16.80;;;;;;;15.01;86.12;100877.33;219053;1256;141178;-66
2023/09/07 06:39:07;;;;;;;18.20;15.50;;;;;;;15.34;86.28;100880.21;219374;1256;140810;-66
2023/09/07 06:44:11;;;;;;;23.40;15.00;;;;;;;15.71;86.41;100886.23;219028;1256;140996;-67
2023/09/07 06:49:15;;;;;;;24.10;16.90;;;;;;;16.15;86.39;100889.74;218036;1256;141383;-68
2023/09/07 06:54:18;;;;;;;18.20;15.80;;;;;;;16.63;86.20;100886.02;218736;1256;141522;-69
2023/09/07 06:59:22;;;;;;;15.40;13.30;;;;;;;17.14;85.79;100884.80;218408;1256;141079;-66
2023/09/07 07:04:26;;;;;;;13.60;12.20;;;;;;;17.89;85.40;100885.39;217803;1257;141028;-67
2023/09/07 07:09:30;;;;;;;13.40;11.70;;;;;;;18.82;84.66;100885.94;218478;1257;140700;-67
2023/09/07 07:14:34;;;;;;;18.30;11.70;;;;;;;20.00;83.25;100888.27;218066;1260;141569;-68
2023/09/07 07:19:37;;;;;;;14.70;11.60;;;;;;;21.55;81.77;100894.27;218142;1260;141588;-67
2023/09/07 07:24:41;;;;;;;16.90;9.50;;;;;;;23.09;79.85;100902.46;217397;1257;140111;-64
2023/09/07 07:29:44;;;;;;;9.90;7.60;;;;;;;24.21;77.87;100912.36;217431;1257;140681;-64
2023/09/07 07:34:47;;;;;;;14.50;9.70;;;;;;;25.01;75.14;100911.45;218175;1257;140461;-67
2023/09/07 07:39:51;;;;;;;10.00;8.20;;;;;;;25.59;72.98;100907.23;217497;1257;139271;-67
2023/09/07 07:44:55;;;;;;;12.50;8.80;;;;;;;26.15;71.27;100911.27;218551;1257;140168;-73
2023/09/07 07:49:57;;;;;;;8.00;6.70;;;;;;;26.63;69.29;100913.95;218138;1256;139956;-71
2023/09/07 07:55:01;;;;;;;10.40;6.90;;;;;;;26.97;67.18;100917.22;218124;1260;139537;-71
2023/09/07 08:00:06;;;;;;;8.80;5.80;;;;;;;27.16;65.45;100917.48;217962;1259;140128;-71
2023/09/07 08:05:15;;;;;;;13.60;6.60;;;;;;;27.26;63.50;100920.29;218737;1256;140719;-71
2023/09/07 08:10:18;;;;;;;10.50;6.20;;;;;;;27.32;62.26;100918.95;218847;1256;141660;-70
2023/09/07 08:15:22;;;;;;;12.00;7.60;;;;;;;27.31;60.71;100915.44;218482;1257;141888;-70
2023/09/07 08:20:26;;;;;;;8.40;6.40;;;;;;;27.37;60.55;100915.91;218256;1257;140406;-70
2023/09/07 08:25:29;;;;;;;8.80;7.10;;;;;;;27.46;59.54;100919.77;219082;1256;140425;-68
2023/09/07 08:30:31;;;;;;;8.30;6.80;;;;;;;27.49;58.56;100919.68;218019;1256;140588;-70
2023/09/07 08:35:35;;;;;;;11.60;6.10;;;;;;;27.51;57.44;100917.81;218589;1257;139954;-71
2023/09/07 08:40:41;;;;;;;14.10;6.40;;;;;;;27.63;57.31;100913.64;218357;1260;140298;-74
2023/09/07 08:45:53;;;;;;;11.30;7.00;;;;;;;27.75;56.95;100917.34;217685;1258;141265;-70
2023/09/07 08:50:56;;;;;;;5.90;5.30;;;;;;;27.91;56.25;100917.48;218735;1256;140484;-75
2023/09/07 08:56:01;;;;;;;6.00;5.40;;;;;;;27.98;55.52;100913.82;217839;1257;139908;-70
2023/09/07 09:01:03;;;;;;;14.00;6.00;;;;;;;28.06;55.11;100915.40;217953;1256;139897;-72
2023/09/07 09:06:11;;;;;;;8.00;4.70;;;;;;;28.19;54.30;100913.83;217909;1259;141787;-69
2023/09/07 09:11:14;;;;;;;4.90;4.50;;;;;;;28.29;53.38;100917.42;217575;1257;139671;-73
2023/09/07 09:16:17;;;;;;;7.20;5.20;;;;;;;28.35;52.40;100913.95;217858;1256;140638;-71
2023/09/07 09:21:21;;;;;;;5.90;4.80;;;;;;;28.40;52.16;100911.13;217397;1257;140191;-68
2023/09/07 09:26:25;;;;;;;;;;;;;;;28.49;51.91;100913.20;217800;1257;139872;-70
2023/09/07 09:31:34;;;;;;;5.60;4.30;;;;;;;28.69;51.48;100907.27;218596;1256;126419;-71
2023/09/07 09:36:37;;;;;;;5.60;3.70;;;;;;;28.82;50.67;100910.25;217934;1256;140119;-72
2023/09/07 09:41:42;;;;;;;10.70;4.10;;;;;;;28.96;50.08;100906.20;217641;1257;140181;-75
2023/09/07 09:46:46;;;;;;;6.10;4.60;;;;;;;28.92;49.37;100908.55;218399;1256;140642;-70
2023/09/07 09:51:53;;;;;;;5.10;4.60;;;;;;;28.90;48.98;100899.55;217800;1256;139454;-70
2023/09/07 09:56:58;;;;;;;6.40;4.30;;;;;;;29.05;48.75;100904.47;217673;1260;140369;-71
2023/09/07 10:02:03;;;;;;;5.30;3.90;;;;;;;29.21;48.01;100904.33;217608;1257;142415;-70
2023/09/07 10:07:07;;;;;;;8.90;4.60;;;;;;;29.19;47.11;100901.27;217631;1259;140682;-70
2023/09/07 10:12:13;;;;;;;7.10;4.30;;;;;;;29.16;47.08;100902.64;219001;1260;140468;-70
2023/09/07 10:17:24;;;;;;;5.00;4.00;;;;;;;29.18;46.57;100898.79;217436;1260;139634;-71
2023/09/07 10:22:30;;;;;;;8.30;6.90;;;;;;;29.19;46.26;100894.64;218572;1260;140626;-70
2023/09/07 10:27:39;;;;;;;8.10;6.00;;;;;;;29.42;46.39;100894.08;219389;1260;139191;-71
2023/09/07 10:32:43;;;;;;;60.20;33.60;;;;;;;29.55;45.72;100889.58;218846;1259;140506;-71
2023/09/07 10:37:50;;;;;;;10.70;7.50;;;;;;;29.64;46.21;100883.58;219338;1256;141131;-74
2023/09/07 10:43:04;;;;;;;6.60;4.50;;;;;;;29.64;45.29;100889.08;217482;1260;139489;-74
2023/09/07 10:48:12;;;;;;;19.30;10.20;;;;;;;29.71;45.16;100883.66;218143;1260;140590;-72
2023/09/07 10:53:28;;;;;;;5.90;4.50;;;;;;;29.84;45.02;100879.52;216904;1260;818877;-69
2023/09/07 10:58:42;;;;;;;8.90;4.50;;;;;;;29.90;44.43;100876.52;217924;1257;141838;-69
2023/09/07 11:03:46;;;;;;;4.10;3.70;;;;;;;29.97;43.87;100873.16;217488;1257;140088;-70
2023/09/07 11:08:52;;;;;;;4.60;4.30;;;;;;;30.00;43.23;100877.77;217505;1256;139316;-68
2023/09/07 11:13:57;;;;;;;;;;;;;;;30.06;43.50;100875.81;217650;1257;139731;-72
2023/09/07 11:19:04;;;;;;;7.50;4.30;;;;;;;29.93;43.27;100874.36;217639;1256;126983;-72
2023/09/07 11:24:08;;;;;;;6.00;4.10;;;;;;;29.94;42.99;100869.09;217276;1262;139529;-71
2023/09/07 11:29:15;;;;;;;24.60;5.10;;;;;;;29.94;43.12;100868.75;217514;1256;139192;-70
2023/09/07 11:34:19;;;;;;;4.90;4.40;;;;;;;29.82;43.05;100869.27;217669;1256;140913;-72
2023/09/07 11:39:23;;;;;;;4.70;4.20;;;;;;;29.88;43.01;100863.64;217783;1256;140559;-71
2023/09/07 11:44:27;;;;;;;6.50;3.90;;;;;;;29.97;42.80;100854.89;218280;1256;140378;-70
2023/09/07 11:49:31;;;;;;;7.10;3.30;;;;;;;30.07;42.90;100853.69;217411;1260;139586;-71
2023/09/07 11:54:34;;;;;;;6.30;3.40;;;;;;;30.01;42.83;100852.14;217400;1261;139162;-70
2023/09/07 11:59:36;;;;;;;4.80;4.00;;;;;;;29.97;42.25;100853.63;217292;1259;140027;-71
2023/09/07 12:05:00;;;;;;;7.70;3.80;;;;;;;29.95;42.13;100851.03;217335;1258;140115;-70
2023/09/07 12:10:05;;;;;;;18.90;5.90;;;;;;;29.91;41.47;100843.27;218343;1259;139827;-75
2023/09/07 12:15:13;;;;;;;3.00;2.80;;;;;;;29.74;41.64;100841.77;219066;1256;140607;-71
2023/09/07 12:20:17;;;;;;;6.00;3.50;;;;;;;29.67;41.29;100842.30;218896;1259;140609;-71
2023/09/07 12:25:22;;;;;;;7.60;4.00;;;;;;;29.72;41.79;100840.52;217480;1260;139629;-72
2023/09/07 12:30:28;;;;;;;4.90;3.70;;;;;;;29.77;42.07;100833.98;218792;1257;139573;-70
2023/09/07 12:35:32;;;;;;;4.20;3.60;;;;;;;29.70;41.41;100831.58;217259;1261;139977;-71
2023/09/07 12:40:36;;;;;;;6.10;3.80;;;;;;;29.68;41.68;100825.84;217494;1256;139403;-70
2023/09/07 12:45:40;;;;;;;6.70;3.80;;;;;;;29.64;41.61;100817.86;217257;1256;140612;-74
2023/09/07 12:50:45;;;;;;;4.00;3.60;;;;;;;29.60;41.53;100813.64;217699;1257;139822;-74
2023/09/07 12:55:48;;;;;;;4.50;4.10;;;;;;;29.61;41.70;100814.30;217432;1257;140279;-75
2023/09/07 13:00:51;;;;;;;4.70;4.30;;;;;;;29.63;41.38;100808.12;217279;1257;139740;-72
2023/09/07 13:05:55;;;;;;;3.30;3.10;;;;;;;29.59;41.03;100803.80;217268;1257;141233;-72
2023/09/07 13:10:59;;;;;;;4.90;3.60;;;;;;;29.39;41.17;100802.22;217152;1257;139869;-74
2023/09/07 13:16:02;;;;;;;72.70;7.90;;;;;;;29.31;41.41;100791.71;217511;1256;139650;-72
2023/09/07 13:21:07;;;;;;;7.10;3.80;;;;;;;29.27;41.46;100788.02;218177;1259;140322;-72
2023/09/07 13:26:11;;;;;;;3.70;3.40;;;;;;;29.25;41.34;100786.61;217518;1256;139742;-73
2023/09/07 13:31:15;;;;;;;4.30;3.90;;;;;;;29.23;41.56;100786.54;217953;1260;140451;-72
2023/09/07 13:36:18;;;;;;;6.80;3.30;;;;;;;29.19;41.53;100787.48;217389;1257;140713;-71
2023/09/07 13:41:21;;;;;;;3.90;3.60;;;;;;;29.14;41.65;100787.75;217999;1257;139169;-71
2023/09/07 13:46:25;;;;;;;4.10;3.70;;;;;;;29.05;41.50;100784.93;217871;1261;140561;-71
2023/09/07 13:51:31;;;;;;;6.70;3.70;;;;;;;28.98;41.61;100785.61;219964;1257;139698;-72
2023/09/07 13:56:36;;;;;;;5.80;3.90;;;;;;;28.93;41.49;100785.86;218740;1257;139863;-71
2023/09/07 14:01:41;;;;;;;4.90;4.40;;;;;;;28.88;41.56;100778.53;218111;1256;140784;-72
2023/09/07 14:06:45;;;;;;;4.10;3.00;;;;;;;28.84;41.47;100776.32;219159;1257;140886;-71
2023/09/07 14:11:48;;;;;;;5.00;3.00;;;;;;;28.79;41.53;100775.16;217752;1259;220681;-71
2023/09/07 14:16:56;;;;;;;5.10;4.00;;;;;;;28.71;41.67;100775.39;217825;1257;139889;-71
2023/09/07 14:22:00;;;;;;;5.20;4.00;;;;;;;28.60;41.63;100773.30;218223;1256;140108;-71
2023/09/07 14:27:04;;;;;;;4.90;3.70;;;;;;;28.52;41.69;100778.14;217689;1257;139933;-71
2023/09/07 14:32:08;;;;;;;3.90;3.60;;;;;;;28.44;41.85;100773.38;220595;1256;139231;-72
2023/09/07 14:37:12;;;;;;;5.10;3.80;;;;;;;28.38;41.65;100765.83;217666;1257;139661;-71
2023/09/07 14:42:17;;;;;;;6.90;4.20;;;;;;;28.29;41.85;100765.52;218332;1257;140252;-71
2023/09/07 14:47:25;;;;;;;4.40;4.00;;;;;;;28.19;41.74;100763.23;217573;1262;140412;-70
2023/09/07 14:52:29;;;;;;;4.60;3.80;;;;;;;28.07;41.82;100765.84;218366;1257;139514;-70
2023/09/07 14:57:32;;;;;;;4.40;4.00;;;;;;;28.01;42.19;100763.79;218119;1260;139279;-71
2023/09/07 15:02:37;;;;;;;3.90;3.70;;;;;;;27.93;42.34;100759.80;217717;1257;140093;-71
2023/09/07 15:07:41;;;;;;;8.00;4.10;;;;;;;27.79;42.57;100758.39;217524;1261;141173;-71
2023/09/07 15:12:44;;;;;;;4.20;3.60;;;;;;;27.65;42.52;100748.98;217533;1260;140718;-72
2023/09/07 15:17:49;;;;;;;8.10;4.20;;;;;;;27.54;42.89;100750.27;217848;1260;139783;-70
2023/09/07 15:22:54;;;;;;;5.60;4.20;;;;;;;27.43;42.94;100748.16;217659;1256;161629;-71
2023/09/07 15:27:58;;;;;;;7.90;4.20;;;;;;;27.27;43.31;100749.38;217511;1259;139656;-70
2023/09/07 15:33:04;;;;;;;8.00;4.40;;;;;;;27.11;43.73;100747.86;217665;1262;140811;-72
2023/09/07 15:38:09;;;;;;;4.90;4.40;;;;;;;26.97;44.21;100751.82;218794;1257;139532;-72
2023/09/07 15:43:11;;;;;;;6.80;5.70;;;;;;;26.84;44.52;100745.33;218979;1257;140786;-71
2023/09/07 15:48:16;;;;;;;5.20;4.40;;;;;;;26.73;44.95;100741.96;218041;1256;139973;-71
2023/09/07 15:53:20;;;;;;;7.80;4.30;;;;;;;26.61;45.36;100736.85;217857;1256;140008;-74
2023/09/07 15:58:25;;;;;;;12.10;4.50;;;;;;;26.45;46.26;100734.23;217575;1260;140921;-70
2023/09/07 16:03:35;;;;;;;13.40;5.30;;;;;;;26.28;46.93;100733.88;219235;1260;139442;-72
2023/09/07 16:08:40;;;;;;;26.40;6.60;;;;;;;26.10;48.04;100728.50;217333;1262;140245;-70
2023/09/07 16:13:43;;;;;;;26.30;6.70;;;;;;;25.89;48.69;100730.04;219079;1260;140080;-74
2023/09/07 16:18:47;;;;;;;6.70;5.50;;;;;;;25.68;49.30;100730.95;220427;1257;141011;-76
2023/09/07 16:23:51;;;;;;;7.50;5.30;;;;;;;25.44;49.76;100727.71;218044;1260;140293;-74
2023/09/07 16:28:54;;;;;;;5.00;4.40;;;;;;;25.21;50.39;100731.80;219882;1260;140287;-74
2023/09/07 16:33:58;;;;;;;6.40;5.00;;;;;;;24.96;51.10;100728.80;219328;1256;140017;-75
2023/09/07 16:39:04;;;;;;;6.80;5.30;;;;;;;24.72;51.83;100730.02;217703;1260;140510;-74
2023/09/07 16:44:08;;;;;;;24.80;5.80;;;;;;;24.44;52.91;100723.48;218115;1260;139227;-70
2023/09/07 16:49:12;;;;;;;10.50;5.90;;;;;;;24.16;53.48;100720.81;218658;1260;141655;-73
2023/09/07 16:54:16;;;;;;;9.50;5.80;;;;;;;23.85;53.89;100728.44;218159;1260;140406;-77
2023/09/07 16:59:19;;;;;;;5.40;4.90;;;;;;;23.57;54.50;100728.20;218747;1256;140081;-78
2023/09/07 17:04:43;;;;;;;10.20;5.60;;;;;;;23.30;55.22;100725.94;218650;1260;140289;-73
2023/09/07 17:09:47;;;;;;;12.60;5.70;;;;;;;23.06;56.02;100729.27;217864;1260;140692;-74
2023/09/07 17:14:51;;;;;;;5.70;5.20;;;;;;;22.82;56.65;100727.11;217692;1258;139732;-72
2023/09/07 17:20:00;;;;;;;6.30;5.70;;;;;;;22.53;57.15;100728.96;218036;1260;141816;-73
2023/09/07 17:25:06;;;;;;;5.90;5.30;;;;;;;22.19;57.93;100732.83;218452;1257;140198;-72
2023/09/07 17:30:15;;;;;;;5.70;5.20;;;;;;;21.90;58.57;100736.94;217892;1262;140420;-73
2023/09/07 17:35:28;;;;;;;6.10;5.20;;;;;;;21.66;59.17;100737.52;217996;1257;140386;-71
2023/09/07 17:40:37;;;;;;;7.20;5.80;;;;;;;21.42;59.50;100742.86;217992;1260;152218;-72
2023/09/07 17:45:46;;;;;;;6.40;5.20;;;;;;;21.12;59.93;100748.83;218603;1260;142794;-74
2023/09/07 17:50:59;;;;;;;9.40;5.60;;;;;;;20.79;60.50;100752.84;218356;1258;139879;-73
2023/09/07 17:56:25;;;;;;;6.50;5.90;;;;;;;20.53;60.90;100752.45;219291;1256;142071;-73
2023/09/07 18:01:56;;;;;;;17.60;6.50;;;;;;;20.20;61.59;100755.27;218057;1260;140826;-73
2023/09/07 18:07:12;;;;;;;7.00;6.30;;;;;;;20.02;62.07;100764.17;219577;1257;142453;-74
2023/09/07 18:12:29;;;;;;;7.50;6.40;;;;;;;19.84;62.57;100767.64;220234;1257;141445;-73
2023/09/07 18:17:43;;;;;;;6.20;5.60;;;;;;;19.65;63.04;100767.59;220070;1257;141907;-73
2023/09/07 18:22:53;;;;;;;6.80;6.10;;;;;;;19.45;63.28;100772.42;219592;1258;141359;-70
2023/09/07 18:28:08;;;;;;;9.60;6.50;;;;;;;19.12;63.59;100767.30;219539;1257;141515;-75
2023/09/07 18:33:18;;;;;;;10.70;7.40;;;;;;;18.93;64.31;100761.79;217730;1260;141095;-74
2023/09/07 18:38:34;;;;;;;13.00;6.70;;;;;;;18.81;64.79;100764.92;218300;1260;142160;-72
2023/09/07 18:43:51;;;;;;;36.40;9.70;;;;;;;18.68;65.34;100762.98;217875;1257;142346;-73
2023/09/07 18:49:04;;;;;;;15.40;8.00;;;;;;;18.58;65.81;100764.21;218755;1257;141211;-73
2023/09/07 18:54:07;;;;;;;24.60;8.20;;;;;;;18.51;66.15;100763.41;217830;1256;140504;-73
2023/09/07 18:59:11;;;;;;;12.80;7.40;;;;;;;18.45;66.45;100769.95;218869;1257;140593;-72
2023/09/07 19:04:16;;;;;;;11.00;7.20;;;;;;;18.34;66.52;100771.63;217601;1260;140810;-76
2023/09/07 19:09:20;;;;;;;10.20;8.60;;;;;;;18.23;66.76;100774.14;217926;1257;140230;-73
2023/09/07 19:14:27;;;;;;;19.40;8.30;;;;;;;18.08;66.76;100775.17;217762;1258;141856;-73
2023/09/07 19:19:30;;;;;;;17.20;8.70;;;;;;;17.93;67.06;100772.25;217834;1260;140715;-74
2023/09/07 19:24:34;;;;;;;21.00;9.30;;;;;;;17.79;67.47;100774.30;218126;1257;142152;-74
2023/09/07 19:29:42;;;;;;;8.90;7.50;;;;;;;17.66;67.74;100773.64;218043;1257;141378;-76
2023/09/07 19:34:46;;;;;;;16.40;8.30;;;;;;;17.57;68.03;100773.91;217788;1257;140193;-74
2023/09/07 19:39:50;;;;;;;10.10;9.10;;;;;;;17.48;68.19;100771.02;218895;1258;141155;-75
2023/09/07 19:44:54;;;;;;;9.40;7.90;;;;;;;17.33;68.46;100764.79;218112;1257;140666;-74
2023/09/07 19:49:58;;;;;;;24.60;9.70;;;;;;;17.22;69.03;100759.11;218212;1260;140406;-73
2023/09/07 19:55:04;;;;;;;14.70;8.10;;;;;;;17.16;69.44;100760.77;218515;1257;140299;-74
2023/09/07 20:00:07;;;;;;;11.00;9.10;;;;;;;17.04;69.47;100756.09;217806;1260;142453;-74
2023/09/07 20:05:12;;;;;;;13.60;8.90;;;;;;;16.93;69.76;100758.48;218257;1257;140569;-73
2023/09/07 20:10:15;;;;;;;21.60;8.40;;;;;;;16.85;69.88;100754.98;220406;1256;141106;-75
2023/09/07 20:15:18;;;;;;;18.30;8.80;;;;;;;16.71;69.85;100754.39;219798;1256;141237;-80
2023/09/07 20:20:21;;;;;;;20.90;8.90;;;;;;;16.65;70.06;100755.10;217666;1257;142001;-82
2023/09/07 20:25:25;;;;;;;22.70;9.90;;;;;;;16.58;70.36;100755.25;218126;1258;141163;-75
2023/09/07 20:30:29;;;;;;;19.90;10.30;;;;;;;16.48;70.39;100751.48;218227;1260;140857;-73
2023/09/07 20:35:34;;;;;;;19.50;11.10;;;;;;;16.37;70.78;100751.16;217747;1260;142155;-73
2023/09/07 20:40:37;;;;;;;20.20;10.80;;;;;;;16.26;70.79;100746.31;217819;1256;142618;-74
2023/09/07 20:45:41;;;;;;;20.40;9.60;;;;;;;16.09;70.87;100750.48;218391;1256;140912;-72
2023/09/07 20:50:46;;;;;;;16.40;9.90;;;;;;;15.97;71.34;100749.92;217696;1260;141085;-73
2023/09/07 20:55:51;;;;;;;18.30;10.10;;;;;;;15.94;71.67;100750.52;218146;1256;141556;-70
2023/09/07 21:00:54;;;;;;;20.50;10.30;;;;;;;15.83;72.03;100754.61;217639;1257;141955;-75
2023/09/07 21:05:58;;;;;;;18.10;9.40;;;;;;;15.75;71.94;100751.04;218019;1257;141129;-84
2023/09/07 21:11:01;;;;;;;22.30;9.60;;;;;;;15.64;72.06;100755.08;218142;1258;141496;-80
2023/09/07 21:16:04;;;;;;;18.20;8.60;;;;;;;15.60;72.49;100755.16;217472;1260;141151;-82
2023/09/07 21:21:09;;;;;;;21.40;11.00;;;;;;;15.52;72.62;100764.02;217843;1260;142205;-78
2023/09/07 21:26:13;;;;;;;10.90;8.40;;;;;;;15.46;72.69;100761.70;218141;1257;141470;-78
2023/09/07 21:31:16;;;;;;;13.10;10.10;;;;;;;15.38;72.80;100758.54;217822;1258;140409;-76
2023/09/07 21:36:18;;;;;;;16.50;9.30;;;;;;;15.33;72.95;100761.08;217821;1259;140503;-75
2023/09/07 21:41:21;;;;;;;15.30;10.20;;;;;;;15.21;73.00;100754.42;217703;1257;140717;-72
2023/09/07 21:46:23;;;;;;;15.30;10.50;;;;;;;15.12;73.33;100758.16;218336;1257;140354;-79
2023/09/07 21:51:25;;;;;;;12.80;10.20;;;;;;;15.08;73.53;100755.34;217863;1257;140617;-74
2023/09/07 21:56:28;;;;;;;34.20;11.90;;;;;;;14.99;73.84;100753.56;218323;1257;140683;-75
2023/09/07 22:01:34;;;;;;;19.80;9.70;;;;;;;14.94;74.20;100756.65;217681;1257;140818;-75
2023/09/07 22:06:36;;;;;;;11.50;9.60;;;;;;;14.87;74.39;100756.43;217493;1260;141136;-73
2023/09/07 22:11:38;;;;;;;19.30;9.80;;;;;;;14.83;74.79;100762.42;218371;1256;141527;-82
2023/09/07 22:16:41;;;;;;;16.30;10.60;;;;;;;14.82;74.82;100756.28;218516;1257;140706;-77
2023/09/07 22:21:45;;;;;;;13.20;9.00;;;;;;;14.74;74.76;100753.48;218076;1260;141664;-81
2023/09/07 22:26:50;;;;;;;12.20;9.30;;;;;;;14.60;74.70;100753.63;217564;1256;141311;-75
2023/09/07 22:31:53;;;;;;;10.30;9.30;;;;;;;14.52;75.12;100753.24;217614;1258;139915;-74
2023/09/07 22:36:55;;;;;;;13.40;9.70;;;;;;;14.47;75.49;100750.92;217600;1257;140745;-81
2023/09/07 22:41:57;;;;;;;13.10;9.40;;;;;;;14.36;75.63;100751.48;217944;1256;140429;-74
2023/09/07 22:47:00;;;;;;;11.00;9.70;;;;;;;14.33;75.96;100748.79;217797;1260;142470;-77
2023/09/07 22:52:02;;;;;;;13.30;9.80;;;;;;;14.30;76.20;100753.71;217274;1260;140541;-75